Terminal Aerodrome Forecast
Issued by NWS

Home | Current Version | Previous Version | Text Only | Print | Product List | Glossary On
Versions: 1 2 3 4 5 6 7 8 9 10 11 12 13 14 15 16 17 18 19 20 21 22 23 24 25 26 27 28 29 30 31 32 33 34 35
000
FTUS43 KDVN 011726
TAFCID
TAF
KCID 011726Z 0118/0218 07011KT P6SM OVC008
      TEMPO 0118/0122 2SM -SHRA BR
     FM012200 01010KT 6SM BR VCSH OVC010
     FM020200 36008KT P6SM OVC017
     FM021000 36008KT P6SM SCT030=

USA.gov is the U.S. government's official web portal to all federal, state and local government web resources and services.